Gmunden, Austria
Current Conditions -  °F | °C
As of 10:50 PM on Friday 31 Oct 2014 (Local Time) from LOWL Reporting Station
Haze Haze  
Wind Chill: 41°   Ceiling: 30000
Heat Index: 41°   Visibility: 2.7mi
Dew Point: 39°   Wind: 1mph
Humidity: 93%   Direction: NA
Pressure: 30.33"   Gusts: NA
Location:  47.92°N, 13.81°E
Report Text: LOWL 312050Z VRB01KT 4400 BR BKN300 05/04 Q1027 TEMPO 3000 BR
Loading
Personal Weather Stations






























Interactive Weather Map
Tropical Storm Tracking
New forecast layout! Learn more

10-Day Weather Forecast

Advertisements
Track Severe Weather on mobile